Time;durP1;ratioP1;P1;durP2;ratioP2;P2;SDS_P1;SDS_P2;PMS_P1;PMS_P2;Temp;Humidity;BMP_temperature;BMP_pressure;BME280_temperature;BME280_humidity;BME280_pressure;Samples;Min_cycle;Max_cycle;Signal;HPM_P1;HPM_P2
2022/07/14 00:00:25;;;;;;;5.40;0.93;;;;;;;;;;5054489;28;20076;-72
2022/07/14 00:02:52;;;;;;;4.18;0.95;;;;;;;;;;5054687;28;20142;-72
2022/07/14 00:05:18;;;;;;;2.13;0.80;;;;;;;;;;5054164;28;20501;-71
2022/07/14 00:07:45;;;;;;;1.40;0.52;;;;;;;;;;5054317;28;20053;-72
2022/07/14 00:10:12;;;;;;;2.08;0.60;;;;;;;;;;5054383;28;20049;-72
2022/07/14 00:12:38;;;;;;;3.72;0.70;;;;;;;;;;5054174;28;20053;-72
2022/07/14 00:15:05;;;;;;;1.67;0.60;;;;;;;;;;5053969;28;20111;-72
2022/07/14 00:17:32;;;;;;;1.83;0.73;;;;;;;;;;5054271;28;20394;-72
2022/07/14 00:19:58;;;;;;;2.00;0.60;;;;;;;;;;5054124;28;20057;-72
2022/07/14 00:22:25;;;;;;;1.85;0.63;;;;;;;;;;5054252;28;20102;-72
2022/07/14 00:24:53;;;;;;;1.40;0.50;;;;;;;;;;5053852;28;20111;-72
2022/07/14 00:27:19;;;;;;;0.75;0.50;;;;;;;;;;5053550;28;20049;-72
2022/07/14 00:29:46;;;;;;;2.55;0.70;;;;;;;;;;5053858;28;20049;-72
2022/07/14 00:32:12;;;;;;;1.48;0.40;;;;;;;;;;5053695;28;20452;-72
2022/07/14 00:34:39;;;;;;;3.05;1.02;;;;;;;;;;5053485;28;20508;-73
2022/07/14 00:37:05;;;;;;;0.95;0.40;;;;;;;;;;5053407;28;20458;-72
2022/07/14 00:39:54;;;;;;;1.20;0.60;;;;;;;;;;5052699;28;20101;-71
2022/07/14 00:42:33;;;;;;;2.05;0.73;;;;;;;;;;5053467;28;20045;-72
2022/07/14 00:45:00;;;;;;;1.35;0.60;;;;;;;;;;5053461;28;20489;-72
2022/07/14 00:47:27;;;;;;;;;;;;;;;;;;5047329;28;20072;-73
2022/07/14 00:49:55;;;;;;;1.63;0.77;;;;;;;;;;5037715;28;19986;-73
2022/07/14 00:52:23;;;;;;;1.75;0.50;;;;;;;;;;5043835;28;20055;-72
2022/07/14 00:54:49;;;;;;;2.05;0.50;;;;;;;;;;5033283;28;20105;-72
2022/07/14 00:57:16;;;;;;;1.40;0.30;;;;;;;;;;5032838;28;20563;-72
2022/07/14 00:59:43;;;;;;;1.65;0.80;;;;;;;;;;5033305;28;20195;-72
2022/07/14 01:02:09;;;;;;;0.57;0.50;;;;;;;;;;5033067;28;20049;-73
2022/07/14 01:04:36;;;;;;;1.63;0.70;;;;;;;;;;5036218;28;20080;-73
2022/07/14 01:07:02;;;;;;;1.08;0.55;;;;;;;;;;5052968;28;20041;-73
2022/07/14 01:09:29;;;;;;;0.68;0.57;;;;;;;;;;5052805;28;20044;-73
2022/07/14 01:11:55;;;;;;;0.80;0.38;;;;;;;;;;5053167;28;20049;-73
2022/07/14 01:14:22;;;;;;;2.40;0.95;;;;;;;;;;5053269;28;20103;-72
2022/07/14 01:16:52;;;;;;;1.00;0.40;;;;;;;;;;5052467;28;20086;-73
2022/07/14 01:19:18;;;;;;;1.45;0.50;;;;;;;;;;5053055;28;20049;-73
2022/07/14 01:21:45;;;;;;;1.23;0.60;;;;;;;;;;5052942;28;20074;-72
2022/07/14 01:24:11;;;;;;;1.05;0.57;;;;;;;;;;5052773;28;20106;-72
2022/07/14 01:26:38;;;;;;;0.90;0.45;;;;;;;;;;5052723;28;20057;-72
2022/07/14 01:29:06;;;;;;;1.38;0.40;;;;;;;;;;5052990;28;20489;-72
2022/07/14 01:31:33;;;;;;;1.95;0.55;;;;;;;;;;5052936;28;20170;-72
2022/07/14 01:34:00;;;;;;;0.77;0.47;;;;;;;;;;5052835;28;20044;-73
2022/07/14 01:36:27;;;;;;;;;;;;;;;;;;5053053;28;20111;-72
2022/07/14 01:38:53;;;;;;;0.93;0.50;;;;;;;;;;5051386;28;20327;-72
2022/07/14 01:41:21;;;;;;;0.50;0.50;;;;;;;;;;5052719;28;20126;-72
2022/07/14 01:43:48;;;;;;;1.35;0.50;;;;;;;;;;5052326;28;20048;-72
2022/07/14 01:46:15;;;;;;;1.00;0.73;;;;;;;;;;5052225;28;20493;-72
2022/07/14 01:48:41;;;;;;;2.30;0.80;;;;;;;;;;5052362;28;20074;-72
2022/07/14 01:51:08;;;;;;;1.85;0.77;;;;;;;;;;5052460;28;20103;-72
2022/07/14 01:53:36;;;;;;;1.95;0.77;;;;;;;;;;5052292;28;20060;-72
2022/07/14 01:56:02;;;;;;;0.85;0.43;;;;;;;;;;5052488;28;20048;-72
2022/07/14 01:58:29;;;;;;;1.77;0.53;;;;;;;;;;5052044;28;20044;-72
2022/07/14 02:03:42;;;;;;;1.80;0.68;;;;;;;;;;5052341;28;20063;-72
2022/07/14 02:06:10;;;;;;;0.65;0.50;;;;;;;;;;5052194;28;20152;-72
2022/07/14 02:08:36;;;;;;;3.40;0.75;;;;;;;;;;5051927;28;20040;-72
2022/07/14 02:13:48;;;;;;;2.17;0.63;;;;;;;;;;5051867;28;20094;-72
2022/07/14 02:16:14;;;;;;;0.98;0.63;;;;;;;;;;5051842;28;20049;-72
2022/07/14 02:18:41;;;;;;;0.60;0.60;;;;;;;;;;5052427;28;20049;-72
2022/07/14 02:21:08;;;;;;;1.17;0.60;;;;;;;;;;5051884;28;20053;-72
2022/07/14 02:23:35;;;;;;;1.48;0.50;;;;;;;;;;5051993;28;20075;-72
2022/07/14 02:26:02;;;;;;;0.50;0.50;;;;;;;;;;5051981;28;20040;-71
2022/07/14 02:28:28;;;;;;;2.38;0.60;;;;;;;;;;5051721;28;20099;-72
2022/07/14 02:30:55;;;;;;;0.90;0.60;;;;;;;;;;5052170;28;20048;-72
2022/07/14 02:33:22;;;;;;;1.10;0.55;;;;;;;;;;5051911;28;20041;-72
2022/07/14 02:35:48;;;;;;;2.13;0.65;;;;;;;;;;5051789;28;20044;-72
2022/07/14 02:38:14;;;;;;;1.25;0.63;;;;;;;;;;5044474;28;20061;-72
2022/07/14 02:40:41;;;;;;;1.25;0.63;;;;;;;;;;5051494;28;20508;-72
2022/07/14 02:43:35;;;;;;;2.08;0.40;;;;;;;;;;5051731;28;20590;-72
2022/07/14 02:46:02;;;;;;;1.88;0.63;;;;;;;;;;5050036;28;20045;-72
2022/07/14 02:48:29;;;;;;;3.05;0.77;;;;;;;;;;5051446;28;20136;-72
2022/07/14 02:51:06;;;;;;;0.50;0.50;;;;;;;;;;5051447;28;20444;-73
2022/07/14 02:53:34;;;;;;;;;;;;;;;;;;5052096;28;20136;-73
2022/07/14 02:56:04;;;;;;;2.38;0.60;;;;;;;;;;5050328;28;19944;-72
2022/07/14 02:58:31;;;;;;;1.95;0.63;;;;;;;;;;5051397;28;20049;-73
2022/07/14 03:00:57;;;;;;;0.82;0.45;;;;;;;;;;5051229;28;20057;-72
2022/07/14 03:03:24;;;;;;;0.83;0.67;;;;;;;;;;5051338;28;20493;-72
2022/07/14 03:05:51;;;;;;;1.38;0.60;;;;;;;;;;5051338;28;20090;-73
2022/07/14 03:08:17;;;;;;;1.98;1.00;;;;;;;;;;5051213;28;20493;-73
2022/07/14 03:10:44;;;;;;;2.15;0.90;;;;;;;;;;5051259;28;20049;-73
2022/07/14 03:13:10;;;;;;;3.10;0.80;;;;;;;;;;5051245;28;20435;-73
2022/07/14 03:15:38;;;;;;;1.63;0.95;;;;;;;;;;5051523;28;20059;-73
2022/07/14 03:18:05;;;;;;;2.25;1.48;;;;;;;;;;5051090;28;20049;-72
2022/07/14 03:20:31;;;;;;;1.90;0.95;;;;;;;;;;5051241;28;20057;-73
2022/07/14 03:22:58;;;;;;;3.17;1.02;;;;;;;;;;5051040;28;20531;-73
2022/07/14 03:25:24;;;;;;;1.08;0.90;;;;;;;;;;5051219;28;20041;-72
2022/07/14 03:27:51;;;;;;;0.57;0.57;;;;;;;;;;5051044;28;20485;-73
2022/07/14 03:30:17;;;;;;;0.80;0.80;;;;;;;;;;5049863;28;20564;-73
2022/07/14 03:32:44;;;;;;;1.98;0.80;;;;;;;;;;5051089;28;20057;-72
2022/07/14 03:35:10;;;;;;;1.00;0.80;;;;;;;;;;5051254;28;20110;-72
2022/07/14 03:37:37;;;;;;;1.58;0.80;;;;;;;;;;5051027;28;20053;-72
2022/07/14 03:40:04;;;;;;;3.45;0.77;;;;;;;;;;5050914;28;20447;-72
2022/07/14 03:42:30;;;;;;;1.17;0.80;;;;;;;;;;5050947;28;20056;-72
2022/07/14 03:44:57;;;;;;;0.80;0.80;;;;;;;;;;5051009;28;20052;-72
2022/07/14 03:47:23;;;;;;;0.90;0.90;;;;;;;;;;5049909;28;20452;-72
2022/07/14 03:49:50;;;;;;;2.42;0.95;;;;;;;;;;5050887;28;20076;-72
2022/07/14 03:52:17;;;;;;;1.67;0.70;;;;;;;;;;5051171;28;20045;-72
2022/07/14 03:54:44;;;;;;;0.80;0.70;;;;;;;;;;5050898;28;20489;-72
2022/07/14 03:57:11;;;;;;;1.55;0.70;;;;;;;;;;5050867;28;20119;-72
2022/07/14 03:59:40;;;;;;;1.58;1.00;;;;;;;;;;5051159;28;20045;-72
2022/07/14 04:02:10;;;;;;;2.47;0.70;;;;;;;;;;5052911;28;20106;-72
2022/07/14 04:04:37;;;;;;;1.48;0.82;;;;;;;;;;5054354;28;20088;-73
2022/07/14 04:07:04;;;;;;;0.68;0.68;;;;;;;;;;5054188;28;20041;-72
2022/07/14 04:09:31;;;;;;;1.27;0.60;;;;;;;;;;5054333;28;20118;-73
2022/07/14 04:11:57;;;;;;;1.45;0.60;;;;;;;;;;5054197;28;20053;-73
2022/07/14 04:14:24;;;;;;;1.10;1.00;;;;;;;;;;5054147;28;20547;-72
2022/07/14 04:16:51;;;;;;;2.08;1.02;;;;;;;;;;5054338;28;20053;-73
2022/07/14 04:19:18;;;;;;;1.77;0.90;;;;;;;;;;5054159;28;20451;-72
2022/07/14 04:21:44;;;;;;;0.75;0.75;;;;;;;;;;5054061;28;20103;-73
2022/07/14 04:24:11;;;;;;;2.03;0.80;;;;;;;;;;5053822;28;20114;-72
2022/07/14 04:26:39;;;;;;;2.42;0.93;;;;;;;;;;5054113;28;20053;-72
2022/07/14 04:29:06;;;;;;;1.55;0.73;;;;;;;;;;5052943;28;20045;-72
2022/07/14 04:31:33;;;;;;;4.13;1.03;;;;;;;;;;5054186;28;20052;-72
2022/07/14 04:34:00;;;;;;;1.63;0.82;;;;;;;;;;5054064;28;20273;-72
2022/07/14 04:36:26;;;;;;;1.63;1.20;;;;;;;;;;5052534;28;20049;-72
2022/07/14 04:38:53;;;;;;;2.10;0.60;;;;;;;;;;5053557;28;20058;-72
2022/07/14 04:41:19;;;;;;;1.70;0.70;;;;;;;;;;5053532;28;20561;-72
2022/07/14 04:43:46;;;;;;;1.63;0.85;;;;;;;;;;5054094;28;20109;-72
2022/07/14 04:46:12;;;;;;;1.75;0.90;;;;;;;;;;5053714;28;20072;-72
2022/07/14 04:54:09;;;;;;;2.28;0.80;;;;;;;;;;5020049;28;20053;-72
2022/07/14 04:56:36;;;;;;;1.65;0.93;;;;;;;;;;5045694;28;20562;-72
2022/07/14 04:59:22;;;;;;;1.30;1.02;;;;;;;;;;5053522;28;20048;-72
2022/07/14 05:01:49;;;;;;;1.30;0.75;;;;;;;;;;5053265;28;20122;-73
2022/07/14 05:04:16;;;;;;;1.23;0.60;;;;;;;;;;5053443;28;20056;-72
2022/07/14 05:06:45;;;;;;;2.13;0.93;;;;;;;;;;5053732;28;20049;-73
2022/07/14 05:09:13;;;;;;;1.58;0.80;;;;;;;;;;5053073;28;20187;-73
2022/07/14 05:11:40;;;;;;;0.80;0.77;;;;;;;;;;5053138;28;20045;-73
2022/07/14 05:14:07;;;;;;;3.17;1.40;;;;;;;;;;5051919;28;20041;-73
2022/07/14 05:16:33;;;;;;;1.87;1.13;;;;;;;;;;5052951;28;20107;-72
2022/07/14 05:19:20;;;;;;;0.77;0.75;;;;;;;;;;5052845;28;20860;-73
2022/07/14 05:21:47;;;;;;;2.25;1.00;;;;;;;;;;5052943;28;20049;-73
2022/07/14 05:24:14;;;;;;;1.67;0.70;;;;;;;;;;5052784;28;20463;-73
2022/07/14 05:26:40;;;;;;;1.20;1.05;;;;;;;;;;5052647;28;20500;-73
2022/07/14 05:29:13;;;;;;;1.95;0.90;;;;;;;;;;5052987;28;20049;-72
2022/07/14 05:31:40;;;;;;;1.40;0.90;;;;;;;;;;5053020;28;20049;-72
2022/07/14 05:34:06;;;;;;;1.38;1.00;;;;;;;;;;5052750;28;20055;-72
2022/07/14 05:36:34;;;;;;;1.67;0.73;;;;;;;;;;5052569;28;20045;-72
2022/07/14 05:39:01;;;;;;;1.67;0.90;;;;;;;;;;5052452;28;20080;-72
2022/07/14 05:41:28;;;;;;;1.95;0.93;;;;;;;;;;5052429;28;20428;-72
2022/07/14 05:43:54;;;;;;;1.77;0.80;;;;;;;;;;5051526;28;20052;-72
2022/07/14 05:46:21;;;;;;;1.42;0.60;;;;;;;;;;5052537;28;20048;-72
2022/07/14 05:48:47;;;;;;;1.48;0.95;;;;;;;;;;5052644;28;20055;-72
2022/07/14 05:51:15;;;;;;;1.20;0.70;;;;;;;;;;5052589;28;20094;-72
2022/07/14 05:53:41;;;;;;;;;;;;;;;;;;5052943;28;20098;-72
2022/07/14 05:56:08;;;;;;;1.65;0.98;;;;;;;;;;5052590;28;19920;-73
2022/07/14 05:58:35;;;;;;;2.50;0.97;;;;;;;;;;5052076;28;20075;-71
2022/07/14 06:01:02;;;;;;;1.90;1.08;;;;;;;;;;5052444;28;20447;-71
2022/07/14 06:03:30;;;;;;;1.67;0.73;;;;;;;;;;5052412;28;20099;-74
2022/07/14 06:06:00;;;;;;;1.70;0.70;;;;;;;;;;5051988;28;20080;-74
2022/07/14 06:08:27;;;;;;;2.05;0.90;;;;;;;;;;5051792;28;20045;-72
2022/07/14 06:10:55;;;;;;;2.90;1.00;;;;;;;;;;5052304;28;20045;-73
2022/07/14 06:13:23;;;;;;;1.63;0.85;;;;;;;;;;5050991;28;20045;-73
2022/07/14 06:15:49;;;;;;;1.83;0.80;;;;;;;;;;5044691;28;20057;-73
2022/07/14 06:18:16;;;;;;;1.02;0.77;;;;;;;;;;5044627;28;20059;-74
2022/07/14 06:20:42;;;;;;;4.90;0.77;;;;;;;;;;5044569;28;20045;-72
2022/07/14 06:23:09;;;;;;;2.00;0.88;;;;;;;;;;5043154;28;20061;-72
2022/07/14 06:25:36;;;;;;;1.17;1.00;;;;;;;;;;5051631;28;20445;-71
2022/07/14 06:28:03;;;;;;;1.40;0.77;;;;;;;;;;5043486;28;20563;-72
2022/07/14 06:30:30;;;;;;;0.80;0.80;;;;;;;;;;5031645;28;20053;-70
2022/07/14 06:32:57;;;;;;;1.70;0.75;;;;;;;;;;5033784;28;20053;-73
2022/07/14 06:35:23;;;;;;;1.38;0.60;;;;;;;;;;5051890;28;20134;-72
2022/07/14 06:37:53;;;;;;;0.80;0.80;;;;;;;;;;5048287;28;20057;-73
2022/07/14 06:40:20;;;;;;;2.00;0.90;;;;;;;;;;5040750;28;20052;-73
2022/07/14 06:42:47;;;;;;;1.75;0.73;;;;;;;;;;5038536;28;20754;-73
2022/07/14 06:45:14;;;;;;;2.80;0.95;;;;;;;;;;5033888;28;20057;-74
2022/07/14 06:47:40;;;;;;;0.90;0.70;;;;;;;;;;5051736;28;20040;-72
2022/07/14 06:50:07;;;;;;;1.08;0.68;;;;;;;;;;5051364;28;20052;-74
2022/07/14 06:52:35;;;;;;;1.95;0.70;;;;;;;;;;5051379;28;20049;-73
2022/07/14 06:55:02;;;;;;;1.30;0.70;;;;;;;;;;5050959;28;20458;-73
2022/07/14 06:57:29;;;;;;;;;;;;;;;;;;5051644;28;20236;-73
2022/07/14 06:59:55;;;;;;;3.13;0.75;;;;;;;;;;5051008;28;20453;-73
2022/07/14 07:02:22;;;;;;;1.85;0.88;;;;;;;;;;5051381;28;20053;-73
2022/07/14 07:07:41;;;;;;;1.88;0.52;;;;;;;;;;5057740;28;20049;-73
2022/07/14 07:10:08;;;;;;;1.77;0.70;;;;;;;;;;5051301;28;20554;-73
2022/07/14 07:12:34;;;;;;;2.67;0.70;;;;;;;;;;5050044;28;20551;-73
2022/07/14 07:15:01;;;;;;;1.83;0.85;;;;;;;;;;5051486;28;20336;-73
2022/07/14 07:17:27;;;;;;;2.87;0.80;;;;;;;;;;5051449;28;20136;-73
2022/07/14 07:19:54;;;;;;;1.33;0.60;;;;;;;;;;5051257;28;20045;-73
2022/07/14 07:22:20;;;;;;;2.30;0.77;;;;;;;;;;5051124;28;20045;-73
2022/07/14 07:24:47;;;;;;;1.13;0.80;;;;;;;;;;5051183;28;20045;-73
2022/07/14 07:27:13;;;;;;;0.70;0.70;;;;;;;;;;5051049;28;20497;-73
2022/07/14 07:29:39;;;;;;;1.70;0.77;;;;;;;;;;5051060;28;20274;-73
2022/07/14 07:32:07;;;;;;;0.82;0.63;;;;;;;;;;5051088;28;20087;-73
2022/07/14 07:34:36;;;;;;;1.55;0.70;;;;;;;;;;5051357;28;20049;-73
2022/07/14 07:37:03;;;;;;;1.13;0.80;;;;;;;;;;5052914;28;20060;-73
2022/07/14 07:39:50;;;;;;;1.42;0.63;;;;;;;;;;5054947;28;20135;-73
2022/07/14 07:42:16;;;;;;;1.42;0.60;;;;;;;;;;5054716;28;20397;-73
2022/07/14 07:44:42;;;;;;;2.28;0.80;;;;;;;;;;5054689;28;20053;-73
2022/07/14 07:47:09;;;;;;;1.27;0.93;;;;;;;;;;5054574;28;20361;-73
2022/07/14 07:49:35;;;;;;;0.50;0.50;;;;;;;;;;5054736;28;20436;-74
2022/07/14 07:52:02;;;;;;;2.33;0.90;;;;;;;;;;5054832;28;20107;-73
2022/07/14 07:54:28;;;;;;;0.90;0.60;;;;;;;;;;5054613;28;20452;-74
2022/07/14 07:57:15;;;;;;;;;;;;;;;;;;5054758;28;20528;-74
2022/07/14 07:59:41;;;;;;;1.67;0.60;;;;;;;;;;5053582;28;19921;-74
2022/07/14 08:02:08;;;;;;;1.70;0.50;;;;;;;;;;5054686;28;20444;-74
2022/07/14 08:04:34;;;;;;;1.85;0.70;;;;;;;;;;5054638;28;20078;-74
2022/07/14 08:07:01;;;;;;;1.38;0.57;;;;;;;;;;5054167;28;20049;-74
2022/07/14 08:09:27;;;;;;;2.33;0.65;;;;;;;;;;5054598;28;20044;-74
2022/07/14 08:11:54;;;;;;;0.77;0.50;;;;;;;;;;5054246;28;20444;-74
2022/07/14 08:17:06;;;;;;;4.07;0.73;;;;;;;;;;5054491;28;20049;-74
2022/07/14 08:19:33;;;;;;;2.03;0.60;;;;;;;;;;5054303;28;20094;-74
2022/07/14 08:21:59;;;;;;;1.05;0.60;;;;;;;;;;5054300;28;20056;-74
2022/07/14 08:24:26;;;;;;;0.80;0.80;;;;;;;;;;5054272;28;20098;-74
2022/07/14 08:26:53;;;;;;;1.02;0.90;;;;;;;;;;5054184;28;20456;-74
2022/07/14 08:29:19;;;;;;;3.60;0.68;;;;;;;;;;5054119;28;20048;-74
2022/07/14 08:31:46;;;;;;;1.15;0.80;;;;;;;;;;5054208;28;20099;-74
2022/07/14 08:34:13;;;;;;;2.05;0.68;;;;;;;;;;5052575;28;20443;-74
2022/07/14 08:36:39;;;;;;;1.95;0.93;;;;;;;;;;5053700;28;20053;-74
2022/07/14 08:39:06;;;;;;;1.20;0.80;;;;;;;;;;5014301;28;20121;-74
2022/07/14 08:41:33;;;;;;;0.95;0.50;;;;;;;;;;5013900;28;20049;-74
2022/07/14 08:44:00;;;;;;;1.83;0.50;;;;;;;;;;5014218;28;20057;-73
2022/07/14 08:46:27;;;;;;;1.00;0.40;;;;;;;;;;5013831;28;20120;-74
2022/07/14 08:48:54;;;;;;;1.00;0.45;;;;;;;;;;5013334;28;20473;-74
2022/07/14 08:51:20;;;;;;;1.92;0.50;;;;;;;;;;5014059;28;20073;-74
2022/07/14 08:53:47;;;;;;;0.98;0.47;;;;;;;;;;5014039;28;20402;-74
2022/07/14 08:56:14;;;;;;;1.20;0.50;;;;;;;;;;5013991;28;20116;-74
2022/07/14 08:58:40;;;;;;;;;;;;;;;;;;5014321;28;20050;-74
2022/07/14 09:01:07;;;;;;;1.50;0.57;;;;;;;;;;5013709;28;19929;-74
2022/07/14 09:03:34;;;;;;;1.08;0.60;;;;;;;;;;5012592;28;20045;-74
2022/07/14 09:06:39;;;;;;;1.48;0.52;;;;;;;;;;5013665;28;20140;-74
2022/07/14 09:09:05;;;;;;;0.77;0.60;;;;;;;;;;5013450;28;20046;-74
2022/07/14 09:11:32;;;;;;;;;;;;;;;;;;5013844;28;20568;-74
2022/07/14 09:14:09;;;;;;;2.33;0.52;;;;;;;;;;5013237;28;20439;-74
2022/07/14 09:16:36;;;;;;;2.53;0.50;;;;;;;;;;5013664;28;20449;-74
2022/07/14 09:19:07;;;;;;;1.20;0.45;;;;;;;;;;5013148;28;20085;-74
2022/07/14 09:21:33;;;;;;;0.75;0.50;;;;;;;;;;5012309;28;20403;-74
2022/07/14 09:24:00;;;;;;;1.60;0.60;;;;;;;;;;5013173;28;20104;-74
2022/07/14 09:26:27;;;;;;;2.05;0.60;;;;;;;;;;5011828;28;20108;-74
2022/07/14 09:28:54;;;;;;;1.48;0.40;;;;;;;;;;5013418;28;20104;-74
2022/07/14 09:31:24;;;;;;;3.08;0.57;;;;;;;;;;5013044;28;20104;-73
2022/07/14 09:33:55;;;;;;;1.95;0.60;;;;;;;;;;5013048;28;20100;-74
2022/07/14 09:36:26;;;;;;;1.27;0.55;;;;;;;;;;5013279;28;20045;-73
2022/07/14 09:38:55;;;;;;;0.85;0.30;;;;;;;;;;5047751;28;20048;-73
2022/07/14 09:41:22;;;;;;;1.23;0.55;;;;;;;;;;5052816;28;20162;-73
2022/07/14 09:44:07;;;;;;;2.08;0.70;;;;;;;;;;5052470;28;20489;-74
2022/07/14 09:46:46;;;;;;;1.77;0.60;;;;;;;;;;5052421;28;20114;-73
2022/07/14 09:49:13;;;;;;;0.90;0.47;;;;;;;;;;5051131;28;20290;-73
2022/07/14 09:51:58;;;;;;;1.02;0.60;;;;;;;;;;5052633;28;20055;-73
2022/07/14 09:54:37;;;;;;;2.13;0.90;;;;;;;;;;5052469;28;20053;-73
2022/07/14 09:57:13;;;;;;;1.63;0.52;;;;;;;;;;5052234;28;20106;-73
2022/07/14 09:59:42;;;;;;;2.10;0.60;;;;;;;;;;5051420;28;20508;-73
2022/07/14 10:02:15;;;;;;;2.45;1.00;;;;;;;;;;5052368;28;20056;-73
2022/07/14 10:04:42;;;;;;;1.13;1.05;;;;;;;;;;5050872;28;20562;-73
2022/07/14 10:07:08;;;;;;;1.85;0.70;;;;;;;;;;5051944;28;20514;-73
2022/07/14 10:09:37;;;;;;;;;;;;;;;;;;5052483;28;20052;-73
2022/07/14 10:12:05;;;;;;;1.52;0.75;;;;;;;;;;5052245;28;19921;-73
2022/07/14 10:14:32;;;;;;;1.42;0.95;;;;;;;;;;5052258;28;20049;-73
2022/07/14 10:16:59;;;;;;;1.40;0.80;;;;;;;;;;5051850;28;20072;-73
2022/07/14 10:19:26;;;;;;;1.63;0.70;;;;;;;;;;5050875;28;20127;-73
2022/07/14 10:21:52;;;;;;;;;;;;;;;;;;5052380;28;20126;-73
2022/07/14 10:24:20;;;;;;;1.45;0.70;;;;;;;;;;5051756;28;20288;-73
2022/07/14 10:26:46;;;;;;;2.03;0.57;;;;;;;;;;5051682;28;20049;-74
2022/07/14 10:29:14;;;;;;;1.80;0.70;;;;;;;;;;5051897;28;20053;-74
2022/07/14 10:31:56;;;;;;;1.45;0.73;;;;;;;;;;5050526;28;20052;-73
2022/07/14 10:34:36;;;;;;;0.85;0.50;;;;;;;;;;5051901;28;20052;-73
2022/07/14 10:37:13;;;;;;;1.30;0.70;;;;;;;;;;5051673;28;20045;-73
2022/07/14 10:39:39;;;;;;;1.25;0.60;;;;;;;;;;5051583;28;20052;-73
2022/07/14 10:42:17;;;;;;;0.95;0.50;;;;;;;;;;5051866;28;20122;-73
2022/07/14 10:44:45;;;;;;;2.05;0.68;;;;;;;;;;5051840;28;20053;-73
2022/07/14 10:47:13;;;;;;;2.92;0.93;;;;;;;;;;5051371;28;20136;-73
2022/07/14 10:49:59;;;;;;;2.47;0.70;;;;;;;;;;5051822;28;20067;-72
2022/07/14 10:52:27;;;;;;;1.70;0.90;;;;;;;;;;5051626;28;20055;-72
2022/07/14 10:55:13;;;;;;;1.02;0.77;;;;;;;;;;5050208;28;20045;-73
2022/07/14 10:57:59;;;;;;;3.00;0.80;;;;;;;;;;5051434;28;20067;-73
2022/07/14 11:00:44;;;;;;;1.02;0.70;;;;;;;;;;5051261;28;20048;-73
2022/07/14 11:03:17;;;;;;;2.97;1.05;;;;;;;;;;5051718;28;20480;-73
2022/07/14 11:06:07;;;;;;;2.25;1.08;;;;;;;;;;5051363;28;20045;-73
2022/07/14 11:08:45;;;;;;;2.08;1.02;;;;;;;;;;5051457;28;20075;-73
2022/07/14 11:11:20;;;;;;;1.90;1.10;;;;;;;;;;5054178;28;20127;-73
2022/07/14 11:14:07;;;;;;;1.20;1.10;;;;;;;;;;5055492;28;20045;-73
2022/07/14 11:16:46;;;;;;;1.75;0.70;;;;;;;;;;5055165;28;20090;-73
2022/07/14 11:19:24;;;;;;;2.05;0.82;;;;;;;;;;5054309;28;20044;-73
2022/07/14 11:22:19;;;;;;;2.50;0.70;;;;;;;;;;5055535;28;20057;-73
2022/07/14 11:24:47;;;;;;;2.08;0.63;;;;;;;;;;5054581;28;20041;-73
2022/07/14 11:27:35;;;;;;;3.03;0.75;;;;;;;;;;5055250;28;20053;-73
2022/07/14 11:30:35;;;;;;;1.85;0.93;;;;;;;;;;5053765;28;20523;-73
2022/07/14 11:33:01;;;;;;;2.58;0.93;;;;;;;;;;5025572;28;20056;-73
2022/07/14 11:38:24;;;;;;;1.00;0.67;;;;;;;;;;5054874;28;20065;-73
2022/07/14 11:40:51;;;;;;;1.23;0.60;;;;;;;;;;5054775;28;20102;-73
2022/07/14 11:43:30;;;;;;;0.75;0.75;;;;;;;;;;5054688;28;20049;-73
2022/07/14 11:46:01;;;;;;;0.77;0.60;;;;;;;;;;5054670;28;20044;-73
2022/07/14 11:48:29;;;;;;;1.50;0.50;;;;;;;;;;5054822;28;20152;-73
2022/07/14 11:51:09;;;;;;;2.50;0.65;;;;;;;;;;5054659;28;20049;-73
2022/07/14 11:53:36;;;;;;;1.30;0.50;;;;;;;;;;5054735;28;20078;-73
2022/07/14 11:56:04;;;;;;;8.77;2.10;;;;;;;;;;5054553;28;20049;-73
2022/07/14 11:58:31;;;;;;;3.53;0.60;;;;;;;;;;5054263;28;20555;-73
2022/07/14 12:00:59;;;;;;;0.88;0.60;;;;;;;;;;5054758;28;20119;-73
2022/07/14 12:03:26;;;;;;;0.90;0.80;;;;;;;;;;5054706;28;20451;-73
2022/07/14 12:05:53;;;;;;;2.92;1.00;;;;;;;;;;5054522;28;20045;-73
2022/07/14 12:08:24;;;;;;;3.13;0.65;;;;;;;;;;5052989;28;20061;-73
2022/07/14 12:10:51;;;;;;;1.05;0.90;;;;;;;;;;5054184;28;20041;-73
2022/07/14 12:13:18;;;;;;;1.42;0.70;;;;;;;;;;5054523;28;20432;-73
2022/07/14 12:15:45;;;;;;;1.45;0.80;;;;;;;;;;5054070;28;20488;-73
2022/07/14 12:18:13;;;;;;;4.32;0.77;;;;;;;;;;5052830;28;20053;-73
2022/07/14 12:20:44;;;;;;;1.42;0.68;;;;;;;;;;5054275;28;20099;-73
2022/07/14 12:23:11;;;;;;;1.75;0.90;;;;;;;;;;5053495;28;20048;-73
2022/07/14 12:25:40;;;;;;;1.77;0.80;;;;;;;;;;5053948;28;20079;-73
2022/07/14 12:28:09;;;;;;;1.33;0.60;;;;;;;;;;5054104;28;20045;-73
2022/07/14 12:30:48;;;;;;;1.02;0.57;;;;;;;;;;5053899;28;20052;-73
2022/07/14 12:33:16;;;;;;;2.13;0.63;;;;;;;;;;5026287;28;20056;-73
2022/07/14 12:35:43;;;;;;;1.45;0.70;;;;;;;;;;5053856;28;20057;-73
2022/07/14 12:38:11;;;;;;;3.10;0.88;;;;;;;;;;5053591;28;20053;-73
2022/07/14 12:40:41;;;;;;;2.65;0.70;;;;;;;;;;5054079;28;20103;-72
2022/07/14 12:43:17;;;;;;;1.40;0.80;;;;;;;;;;5054015;28;20098;-72
2022/07/14 12:45:59;;;;;;;1.13;0.75;;;;;;;;;;5053867;28;20041;-72
2022/07/14 12:48:27;;;;;;;1.90;0.70;;;;;;;;;;5053540;28;20160;-73
2022/07/14 12:50:53;;;;;;;2.30;0.98;;;;;;;;;;5053797;28;20045;-72
2022/07/14 12:53:20;;;;;;;2.05;1.10;;;;;;;;;;5053466;28;20493;-73
2022/07/14 12:55:46;;;;;;;;;;;;;;;;;;5054104;28;20110;-73
2022/07/14 12:58:14;;;;;;;1.42;0.60;;;;;;;;;;5053615;28;19974;-74
2022/07/14 13:00:42;;;;;;;1.23;0.80;;;;;;;;;;5053582;28;20098;-73
2022/07/14 13:03:10;;;;;;;2.03;0.70;;;;;;;;;;5053229;28;20099;-74
2022/07/14 13:05:37;;;;;;;2.15;0.80;;;;;;;;;;5053382;28;20049;-73
2022/07/14 13:08:22;;;;;;;2.05;0.60;;;;;;;;;;5053120;28;20044;-73
2022/07/14 13:10:56;;;;;;;2.15;0.70;;;;;;;;;;5053117;28;20049;-74
2022/07/14 13:13:33;;;;;;;1.70;0.75;;;;;;;;;;5053320;28;20053;-74
2022/07/14 13:16:15;;;;;;;1.67;0.77;;;;;;;;;;5053030;28;20037;-74
2022/07/14 13:19:01;;;;;;;2.08;0.90;;;;;;;;;;5053103;28;20508;-74
2022/07/14 13:21:27;;;;;;;;;;;;;;;;;;5053372;28;20053;-74
2022/07/14 13:23:54;;;;;;;1.40;0.73;;;;;;;;;;5052935;28;20339;-74
2022/07/14 13:26:20;;;;;;;1.60;0.65;;;;;;;;;;5052907;28;20489;-74
2022/07/14 13:28:48;;;;;;;2.33;0.55;;;;;;;;;;5052727;28;20550;-74
2022/07/14 13:31:16;;;;;;;2.95;0.70;;;;;;;;;;5052994;28;20448;-73
2022/07/14 13:33:44;;;;;;;1.25;0.70;;;;;;;;;;5051536;28;20053;-73
2022/07/14 13:36:11;;;;;;;1.38;0.60;;;;;;;;;;5052875;28;20111;-73
2022/07/14 13:38:39;;;;;;;1.98;1.00;;;;;;;;;;5052553;28;20103;-73
2022/07/14 13:41:06;;;;;;;2.25;0.60;;;;;;;;;;5052697;28;20045;-73
2022/07/14 13:43:33;;;;;;;1.63;0.60;;;;;;;;;;5052693;28;20065;-73
2022/07/14 13:46:00;;;;;;;2.35;0.70;;;;;;;;;;5052405;28;20045;-73
2022/07/14 13:48:27;;;;;;;1.17;0.50;;;;;;;;;;5052419;28;20087;-74
2022/07/14 13:53:39;;;;;;;2.03;0.68;;;;;;;;;;5052554;28;20060;-73
2022/07/14 13:56:05;;;;;;;1.48;0.60;;;;;;;;;;5052454;28;20127;-73
2022/07/14 13:58:32;;;;;;;2.08;0.80;;;;;;;;;;5052443;28;20049;-73
2022/07/14 14:00:59;;;;;;;2.20;0.70;;;;;;;;;;5052181;28;20052;-73
2022/07/14 14:03:26;;;;;;;1.35;0.70;;;;;;;;;;5052472;28;20447;-73
2022/07/14 14:05:57;;;;;;;2.28;0.88;;;;;;;;;;5051991;28;20049;-73
2022/07/14 14:08:24;;;;;;;2.15;0.63;;;;;;;;;;5050698;28;20516;-73
2022/07/14 14:10:50;;;;;;;1.48;0.60;;;;;;;;;;5051949;28;20041;-73
2022/07/14 14:13:21;;;;;;;1.23;0.65;;;;;;;;;;5051990;28;20369;-73
2022/07/14 14:15:48;;;;;;;1.70;0.57;;;;;;;;;;5052135;28;20049;-73
2022/07/14 14:18:14;;;;;;;1.58;0.70;;;;;;;;;;5051889;28;20552;-73
2022/07/14 14:20:41;;;;;;;1.05;0.68;;;;;;;;;;5052126;28;20052;-73
2022/07/14 14:23:08;;;;;;;2.38;0.68;;;;;;;;;;5052120;28;20049;-73
2022/07/14 14:25:41;;;;;;;0.88;0.60;;;;;;;;;;5052225;28;20048;-73
2022/07/14 14:28:08;;;;;;;2.13;0.70;;;;;;;;;;5052012;28;20049;-70
2022/07/14 14:30:34;;;;;;;3.03;0.85;;;;;;;;;;5051724;28;20122;-71
2022/07/14 14:33:02;;;;;;;1.98;1.10;;;;;;;;;;5051907;28;20037;-71
2022/07/14 14:35:31;;;;;;;3.28;0.95;;;;;;;;;;5052029;28;20135;-71
2022/07/14 14:37:58;;;;;;;2.45;0.50;;;;;;;;;;5051366;28;20544;-71
2022/07/14 14:40:25;;;;;;;1.40;0.60;;;;;;;;;;5052192;28;20442;-71
2022/07/14 14:42:52;;;;;;;0.98;0.65;;;;;;;;;;5051544;28;20417;-71
2022/07/14 14:45:18;;;;;;;1.33;0.50;;;;;;;;;;5051325;28;20049;-71
2022/07/14 14:47:44;;;;;;;1.85;0.70;;;;;;;;;;5051794;28;20060;-71
2022/07/14 14:50:11;;;;;;;4.25;0.90;;;;;;;;;;5051616;28;20049;-71
2022/07/14 14:52:38;;;;;;;3.17;0.70;;;;;;;;;;5051812;28;20060;-70
2022/07/14 14:55:06;;;;;;;3.38;0.80;;;;;;;;;;5051750;28;20045;-70
2022/07/14 14:57:32;;;;;;;2.95;1.02;;;;;;;;;;5051310;28;20539;-73
2022/07/14 14:59:59;;;;;;;1.17;0.57;;;;;;;;;;5051329;28;20562;-73
2022/07/14 15:02:30;;;;;;;1.65;0.82;;;;;;;;;;5051525;28;20041;-73
2022/07/14 15:04:57;;;;;;;4.57;0.85;;;;;;;;;;5050372;28;20107;-73
2022/07/14 15:07:24;;;;;;;2.05;0.60;;;;;;;;;;5051259;28;20053;-73
2022/07/14 15:09:50;;;;;;;2.00;0.82;;;;;;;;;;5051201;28;20551;-73
2022/07/14 15:12:17;;;;;;;1.48;0.68;;;;;;;;;;5051425;28;20451;-73
2022/07/14 15:14:44;;;;;;;2.55;0.73;;;;;;;;;;5051523;28;20072;-73
2022/07/14 15:17:10;;;;;;;3.33;0.90;;;;;;;;;;5051525;28;20095;-73